Time;durP1;ratioP1;P1;durP2;ratioP2;P2;SDS_P1;SDS_P2;PMS_P1;PMS_P2;Temp;Humidity;BMP_temperature;BMP_pressure;BME280_temperature;BME280_humidity;BME280_pressure;Samples;Min_cycle;Max_cycle;Signal;HPM_P1;HPM_P2
2023/02/12 00:01:27;;;;;;;42.93;25.63;;;6.20;99.90;;;-141.84;94.11;18933.94;5031574;28;20713;-57
2023/02/12 00:03:57;;;;;;;46.10;24.60;;;6.20;99.90;;;-141.84;94.30;18903.44;5032108;28;20566;-57
2023/02/12 00:06:25;;;;;;;43.40;24.33;;;6.20;99.90;;;-141.84;94.51;18911.56;5031488;28;20323;-60
2023/02/12 00:08:57;;;;;;;44.53;26.03;;;6.20;99.90;;;-141.84;94.55;18919.69;5031508;28;20252;-55
2023/02/12 00:11:28;;;;;;;44.97;24.63;;;6.20;99.90;;;-141.84;94.10;18927.84;5031680;28;20659;-60
2023/02/12 00:13:58;;;;;;;43.37;24.50;;;6.30;99.90;;;-141.84;94.06;18901.41;5031679;28;20230;-55
2023/02/12 00:16:28;;;;;;;46.00;25.13;;;6.20;99.90;;;-141.84;94.51;18925.81;5031076;28;20811;-59
2023/02/12 00:18:59;;;;;;;42.00;24.67;;;6.20;99.90;;;-141.84;94.69;18893.28;5032203;28;20220;-56
2023/02/12 00:21:28;;;;;;;41.23;23.97;;;6.10;99.90;;;-141.84;95.01;18907.50;5031136;28;20233;-58
2023/02/12 00:23:56;;;;;;;46.43;25.40;;;6.20;99.90;;;-141.84;94.52;18907.50;5031461;28;20624;-56
2023/02/12 00:26:25;;;;;;;40.73;23.83;;;6.20;99.90;;;-141.84;94.58;18903.44;5031346;28;20230;-59
2023/02/12 00:28:54;;;;;;;43.37;24.97;;;6.10;99.90;;;-141.84;94.69;18881.09;5031285;28;20225;-58
2023/02/12 00:31:25;;;;;;;40.60;24.20;;;6.20;99.90;;;-141.84;94.71;18895.31;5031613;28;20205;-58
2023/02/12 00:33:54;;;;;;;41.80;24.47;;;6.10;99.90;;;-141.84;94.56;18911.56;5011856;28;20315;-57
2023/02/12 00:36:27;;;;;;;42.30;24.30;;;6.20;99.90;;;-141.84;94.62;18913.59;5027210;28;20313;-61
2023/02/12 00:38:56;;;;;;;38.93;24.23;;;6.10;99.90;;;-141.84;94.12;18925.81;5030881;28;20221;-59
2023/02/12 00:41:25;;;;;;;39.70;23.50;;;6.20;99.90;;;-141.84;94.17;18899.38;5031038;28;20729;-59
2023/02/12 00:43:54;;;;;;;40.57;22.50;;;6.20;99.90;;;-141.84;94.40;18911.56;5031111;28;20226;-56
2023/02/12 00:46:22;;;;;;;37.73;23.13;;;6.10;99.90;;;-141.84;94.32;18909.53;5031173;28;20676;-58
2023/02/12 00:48:50;;;;;;;39.63;24.23;;;6.10;99.90;;;-141.84;94.07;18887.19;5011388;28;20222;-59
2023/02/12 00:51:18;;;;;;;39.80;23.60;;;6.10;99.90;;;-141.84;94.07;18881.09;5026386;28;20237;-57
2023/02/12 00:53:48;;;;;;;40.40;22.93;;;6.20;99.90;;;-141.84;93.70;18946.13;5030853;28;20234;-55
2023/02/12 00:56:16;;;;;;;39.03;23.13;;;6.20;99.90;;;-141.84;93.94;18905.47;5030585;28;20249;-57
2023/02/12 00:58:45;;;;;;;39.00;23.40;;;6.20;99.90;;;-141.84;94.07;18885.16;5030654;28;20210;-60
2023/02/12 01:01:13;;;;;;;38.57;23.50;;;6.20;99.90;;;-141.84;93.83;18875.00;5029966;28;20206;-57
2023/02/12 01:03:41;;;;;;;40.43;23.60;;;6.20;99.90;;;-141.84;93.60;18887.19;5030531;28;20241;-59
2023/02/12 01:06:09;;;;;;;37.20;22.63;;;6.20;99.90;;;-141.84;93.71;18854.69;4997250;28;20242;-57
2023/02/12 01:08:38;;;;;;;39.87;23.00;;;6.20;99.90;;;-141.84;94.03;18899.38;5020653;28;20217;-60
2023/02/12 01:11:07;;;;;;;37.23;21.57;;;6.20;99.90;;;-141.84;93.90;18891.25;5030553;28;20225;-59
2023/02/12 01:13:36;;;;;;;38.93;22.23;;;6.20;99.90;;;-141.84;93.84;18895.31;5030677;28;20206;-57
2023/02/12 01:16:09;;;;;;;36.03;22.17;;;6.20;99.90;;;-141.84;94.02;18925.81;5030435;28;20240;-57
2023/02/12 01:18:38;;;;;;;38.37;22.47;;;6.20;99.90;;;-141.84;94.33;18899.38;5030336;28;20635;-56
2023/02/12 01:21:11;;;;;;;36.10;21.30;;;6.20;99.90;;;-141.84;93.79;18915.63;5030053;28;20225;-59
2023/02/12 01:23:40;;;;;;;37.47;22.37;;;6.30;99.90;;;-141.84;93.25;18923.78;5030232;28;20230;-56
2023/02/12 01:26:10;;;;;;;37.17;21.13;;;6.30;99.90;;;-141.84;93.15;18915.63;5029988;28;20304;-56
2023/02/12 01:28:40;;;;;;;36.40;22.50;;;6.30;99.90;;;-141.84;93.47;18911.56;5030055;28;20670;-57
2023/02/12 01:31:11;;;;;;;37.17;21.23;;;6.30;99.90;;;-141.84;93.11;18911.56;5030505;28;20202;-58
2023/02/12 01:33:40;;;;;;;35.20;21.03;;;6.30;99.90;;;-141.84;93.33;18887.19;5029972;28;20226;-58
2023/02/12 01:36:11;;;;;;;37.67;21.57;;;6.30;99.90;;;-141.84;93.42;18909.53;5030078;28;20234;-59
2023/02/12 01:38:39;;;;;;;39.13;22.10;;;6.30;99.90;;;-141.84;93.73;18923.78;5029849;28;20237;-60
2023/02/12 01:41:12;;;;;;;34.63;20.53;;;6.30;99.90;;;-141.84;94.13;18889.22;5029977;28;20234;-58
2023/02/12 01:43:41;;;;;;;39.37;22.30;;;6.30;99.90;;;-141.84;94.50;18897.34;5029782;28;20233;-58
2023/02/12 01:46:13;;;;;;;36.37;21.00;;;6.30;99.90;;;-141.84;94.58;18870.94;5030437;28;20506;-57
2023/02/12 01:48:47;;;;;;;37.23;21.87;;;6.40;99.90;;;-141.84;94.55;18923.78;5029646;28;20228;-59
2023/02/12 01:51:21;;;;;;;35.70;20.80;;;6.30;99.90;;;-141.84;94.51;18895.31;5029601;28;20222;-57
2023/02/12 01:53:55;;;;;;;33.63;20.47;;;6.30;99.90;;;-141.84;94.52;18885.16;5029811;28;20237;-58
2023/02/12 01:56:25;;;;;;;34.17;19.30;;;6.40;99.90;;;-141.84;94.24;18899.38;5029819;28;20566;-58
2023/02/12 01:58:56;;;;;;;35.10;20.73;;;6.40;99.90;;;-141.84;94.40;18903.44;5029902;28;20226;-58
2023/02/12 02:01:29;;;;;;;32.17;19.80;;;6.40;99.90;;;-141.84;94.22;18895.31;5029868;28;20611;-58
2023/02/12 02:04:05;;;;;;;33.03;19.97;;;6.40;99.90;;;-141.84;94.44;18905.47;5029879;28;20222;-57
2023/02/12 02:06:38;;;;;;;34.47;20.37;;;6.40;99.90;;;-141.84;94.01;18909.53;5029712;28;20221;-59
2023/02/12 02:09:07;;;;;;;33.40;20.50;;;6.30;99.90;;;-141.84;94.10;18897.34;5029621;28;20225;-57
2023/02/12 02:14:33;;;;;;;37.60;20.93;;;6.30;99.90;;;-141.84;94.07;18909.53;5020041;28;20615;-58
2023/02/12 02:17:37;;;;;;;33.60;19.93;;;6.30;99.90;;;-141.84;93.37;18883.13;5029081;28;20229;-57
2023/02/12 02:21:05;;;;;;;33.33;20.27;;;6.40;99.90;;;-141.84;93.30;18907.50;5015998;28;20595;-57
2023/02/12 02:24:35;;;;;;;31.60;18.90;;;6.30;99.90;;;-141.84;93.06;18907.50;5028990;28;20698;-58
2023/02/12 02:27:24;;;;;;;31.13;18.50;;;6.40;99.90;;;-141.84;93.15;18917.66;4984364;28;20226;-59
2023/02/12 02:30:25;;;;;;;33.13;19.10;;;6.40;99.90;;;-141.84;93.42;18885.16;5033236;28;20225;-59
2023/02/12 02:33:10;;;;;;;32.60;19.30;;;6.40;99.90;;;-141.84;93.39;18897.34;5048981;28;20228;-60
2023/02/12 02:35:48;;;;;;;32.03;18.90;;;6.30;99.90;;;-141.84;93.66;18879.06;5049280;28;20662;-58
2023/02/12 02:38:30;;;;;;;29.80;19.30;;;6.40;99.90;;;-141.84;93.92;18872.97;5049010;28;20641;-58
2023/02/12 02:41:07;;;;;;;31.50;19.63;;;6.30;99.90;;;-141.84;94.15;18891.25;5049104;28;20244;-57
2023/02/12 02:43:42;;;;;;;32.77;19.27;;;6.30;99.90;;;-141.84;94.01;18883.13;5049029;28;20340;-56
2023/02/12 02:46:20;;;;;;;31.60;19.37;;;6.30;99.90;;;-141.84;93.83;18875.00;5049313;28;20656;-56
2023/02/12 02:48:53;;;;;;;29.83;19.40;;;6.30;99.90;;;-141.84;94.09;18903.44;5048790;28;20248;-58
2023/02/12 02:51:27;;;;;;;30.87;18.33;;;6.30;99.90;;;-141.84;93.66;18897.34;5048966;28;20237;-59
2023/02/12 02:54:05;;;;;;;30.70;19.00;;;6.30;99.90;;;-141.84;93.57;18891.25;5048965;28;20237;-56
2023/02/12 02:56:39;;;;;;;30.20;19.23;;;6.30;99.90;;;-141.84;93.63;18897.34;5048806;28;20232;-56
2023/02/12 02:59:12;;;;;;;33.27;20.47;;;6.30;99.90;;;-141.84;93.51;18907.50;5048654;28;20221;-55
2023/02/12 03:01:49;;;;;;;29.00;19.27;;;6.30;99.90;;;-141.84;93.13;18895.31;5049097;28;20196;-58
2023/02/12 03:04:25;;;;;;;32.73;19.43;;;6.30;99.90;;;-141.84;93.10;18889.22;5049642;28;20213;-57
2023/02/12 03:07:00;;;;;;;29.57;18.47;;;6.30;99.90;;;-141.84;93.01;18864.84;5049024;28;20446;-57
2023/02/12 03:09:38;;;;;;;31.77;19.20;;;6.40;99.90;;;-141.84;93.17;18881.09;5048728;28;20625;-56
2023/02/12 03:12:14;;;;;;;28.77;18.17;;;6.40;99.90;;;-141.84;93.35;18883.13;5048886;28;20229;-56
2023/02/12 03:14:52;;;;;;;28.63;18.47;;;6.40;99.90;;;-141.84;93.64;18881.09;5048585;28;20227;-57
2023/02/12 03:17:30;;;;;;;29.83;19.30;;;6.40;99.90;;;-141.84;94.17;18893.28;5049015;28;20233;-56
2023/02/12 03:20:05;;;;;;;29.77;18.97;;;6.40;99.90;;;-141.84;94.19;18875.00;5048825;28;20229;-58
2023/02/12 03:22:39;;;;;;;27.30;17.70;;;6.40;99.90;;;-141.84;93.95;18891.25;5048786;28;20185;-59
2023/02/12 03:25:14;;;;;;;31.63;19.43;;;6.50;99.90;;;-141.84;94.14;18913.59;5052138;28;20221;-56
2023/02/12 03:27:47;;;;;;;29.20;19.00;;;6.50;99.90;;;-141.84;94.24;18919.69;5052247;28;20303;-59
2023/02/12 03:30:17;;;;;;;28.30;18.00;;;6.50;99.90;;;-141.84;94.06;18885.16;5052089;28;20232;-58
2023/02/12 03:32:58;;;;;;;32.07;18.97;;;6.50;99.90;;;-141.84;94.32;18879.06;5052071;28;20225;-57
2023/02/12 03:35:38;;;;;;;31.60;18.43;;;6.50;99.90;;;-141.84;94.26;18885.16;5051986;28;20248;-58
2023/02/12 03:38:18;;;;;;;29.33;18.93;;;6.50;99.90;;;-141.84;94.32;18844.53;5052081;28;20221;-58
2023/02/12 03:40:56;;;;;;;29.67;19.00;;;6.50;99.90;;;-141.84;94.26;18919.69;5052161;28;20236;-62
2023/02/12 03:43:32;;;;;;;29.37;19.10;;;6.50;99.90;;;-141.84;94.30;18901.41;5052641;28;20209;-57
2023/02/12 03:46:11;;;;;;;29.83;17.40;;;6.50;99.90;;;-141.84;94.17;18901.41;5051970;28;20213;-58
2023/02/12 03:48:52;;;;;;;27.43;18.40;;;6.50;99.90;;;-141.84;94.46;18891.25;5051549;28;20229;-57
2023/02/12 03:51:26;;;;;;;30.20;18.50;;;6.50;99.90;;;-141.84;94.47;18875.00;5051820;28;20232;-57
2023/02/12 03:53:57;;;;;;;30.13;19.03;;;6.50;99.90;;;-141.84;94.64;18883.13;5051623;28;20228;-58
2023/02/12 03:56:33;;;;;;;30.20;19.57;;;6.50;99.90;;;-141.84;94.51;18875.00;5051786;28;20225;-57
2023/02/12 03:59:02;;;;;;;26.93;17.67;;;6.50;99.90;;;-141.84;94.53;18854.69;5051629;28;20245;-55
2023/02/12 04:01:33;;;;;;;26.70;18.30;;;6.50;99.90;;;-141.84;94.39;18883.13;5051515;28;20197;-58
2023/02/12 04:04:08;;;;;;;28.97;18.70;;;6.50;99.90;;;-141.84;94.44;18875.00;5051986;28;20206;-59
2023/02/12 04:06:37;;;;;;;27.83;17.57;;;6.50;99.90;;;-141.84;94.55;18893.28;5051325;28;20236;-58
2023/02/12 04:09:09;;;;;;;28.80;18.43;;;6.50;99.90;;;-141.84;94.42;18907.50;5032308;28;20673;-58
2023/02/12 04:11:54;;;;;;;27.97;18.00;;;6.50;99.90;;;-141.84;94.35;18866.88;5051669;28;20227;-56
2023/02/12 04:14:31;;;;;;;28.97;18.50;;;6.40;99.90;;;-141.84;94.22;18870.94;5051462;28;20221;-59
2023/02/12 04:17:07;;;;;;;28.87;18.87;;;6.50;99.90;;;-141.84;94.27;18846.56;5051629;28;20236;-58
2023/02/12 04:19:55;;;;;;;30.00;18.47;;;6.40;99.90;;;-141.84;94.27;18872.97;5051378;28;20186;-58
2023/02/12 04:22:44;;;;;;;27.80;17.77;;;6.40;99.90;;;-141.84;94.32;18864.84;5051836;28;20181;-57
2023/02/12 04:25:34;;;;;;;30.40;18.77;;;6.40;99.90;;;-141.84;94.39;18852.66;5051208;28;20245;-57
2023/02/12 04:28:15;;;;;;;31.67;18.53;;;6.40;99.90;;;-141.84;94.69;18842.50;5051507;28;20209;-56
2023/02/12 04:30:53;;;;;;;28.60;18.83;;;6.40;99.90;;;-141.84;94.44;18781.53;5050755;28;20231;-58
2023/02/12 04:33:27;;;;;;;27.77;17.80;;;6.40;99.90;;;-141.84;94.33;18787.63;5050827;28;20319;-59
2023/02/12 04:36:02;;;;;;;29.40;18.77;;;6.40;99.90;;;-141.84;94.47;18791.69;5050815;28;20237;-56
2023/02/12 04:38:38;;;;;;;27.70;17.80;;;6.40;99.90;;;-141.84;94.52;18803.88;5050979;28;20229;-56
2023/02/12 04:41:08;;;;;;;35.47;20.67;;;6.40;99.90;;;-141.84;94.56;18834.38;5050874;28;20236;-59
2023/02/12 04:43:38;;;;;;;31.13;19.57;;;6.40;99.90;;;-141.84;94.87;18789.66;5050664;28;20221;-58
2023/02/12 04:46:09;;;;;;;30.87;19.93;;;6.40;99.90;;;-141.84;94.57;18803.88;5051031;28;20557;-58
2023/02/12 04:48:50;;;;;;;30.60;19.63;;;6.40;99.90;;;-141.84;94.30;18777.47;5050607;28;20485;-58
2023/02/12 04:51:20;;;;;;;30.83;20.67;;;6.40;99.90;;;-141.84;94.26;18805.91;5015139;28;20229;-57
2023/02/12 04:53:48;;;;;;;29.87;19.73;;;6.40;99.90;;;-141.84;94.39;18814.03;5050426;28;20221;-58
2023/02/12 04:56:17;;;;;;;34.40;22.60;;;6.40;99.90;;;-141.84;94.50;18809.97;5050521;28;20228;-57
2023/02/12 04:58:45;;;;;;;31.70;22.13;;;6.30;99.90;;;-141.84;94.45;18781.53;5050388;28;20715;-59
2023/02/12 05:01:13;;;;;;;35.07;22.43;;;6.40;99.90;;;-141.84;94.71;18828.28;5050838;28;20205;-57
2023/02/12 05:03:42;;;;;;;32.50;21.20;;;6.40;99.90;;;-141.84;94.66;18785.59;5050267;28;20240;-57
2023/02/12 05:06:10;;;;;;;33.37;20.10;;;6.40;99.90;;;-141.84;94.61;18793.72;5050179;28;20229;-56
2023/02/12 05:08:39;;;;;;;29.63;18.97;;;6.40;99.90;;;-141.84;94.45;18816.06;5050247;28;20236;-57
2023/02/12 05:11:09;;;;;;;30.00;19.53;;;6.40;99.90;;;-141.84;94.35;18801.84;5050214;28;20228;-55
2023/02/12 05:13:38;;;;;;;35.63;20.43;;;6.30;99.90;;;-141.84;94.42;18818.09;5049991;28;20194;-58
2023/02/12 05:16:07;;;;;;;31.47;19.83;;;6.30;99.90;;;-141.84;94.47;18805.91;5050254;28;20256;-58
2023/02/12 05:18:36;;;;;;;29.90;18.53;;;6.30;99.90;;;-141.84;94.31;18834.38;5049976;28;20229;-58
2023/02/12 05:21:05;;;;;;;30.20;18.73;;;6.30;99.90;;;-141.84;94.33;18795.75;5049777;28;20225;-56
2023/02/12 05:23:37;;;;;;;29.50;18.30;;;6.30;99.90;;;-141.84;94.42;18789.66;5049699;28;20221;-56
2023/02/12 05:26:10;;;;;;;30.20;19.67;;;6.30;99.90;;;-141.84;94.31;18767.31;5049758;28;20221;-56
2023/02/12 05:28:39;;;;;;;30.20;18.93;;;6.30;99.90;;;-141.84;94.10;18826.25;5050184;28;20189;-58
2023/02/12 05:31:13;;;;;;;33.37;20.03;;;6.30;99.90;;;-141.84;94.26;18777.47;5049901;28;20212;-57
2023/02/12 05:33:42;;;;;;;28.77;18.50;;;6.30;99.90;;;-141.84;94.17;18744.97;5050156;28;20493;-55
2023/02/12 05:36:15;;;;;;;29.13;19.80;;;6.30;99.90;;;-141.84;94.26;18805.91;5042565;28;20213;-58
2023/02/12 05:38:44;;;;;;;33.00;19.00;;;6.30;99.90;;;-141.84;94.47;18773.41;5033715;28;20229;-57
2023/02/12 05:41:17;;;;;;;28.93;18.53;;;6.30;99.90;;;-141.84;94.21;18809.97;5029714;28;20316;-59
2023/02/12 05:43:45;;;;;;;29.00;18.33;;;6.30;99.90;;;-141.84;94.15;18799.81;5029858;28;20561;-58
2023/02/12 05:46:18;;;;;;;29.73;19.07;;;6.30;99.90;;;-141.84;93.79;18785.59;5029490;28;20708;-57
2023/02/12 05:48:47;;;;;;;27.73;17.33;;;6.40;99.90;;;-141.84;93.89;18822.19;5029165;28;20237;-59
2023/02/12 05:51:20;;;;;;;28.00;17.70;;;6.40;99.90;;;-141.84;93.88;18799.81;5029287;28;20232;-56
2023/02/12 05:53:50;;;;;;;26.00;18.17;;;6.40;99.90;;;-141.84;94.19;18795.75;5029697;28;20233;-57
2023/02/12 05:56:25;;;;;;;27.87;18.70;;;6.30;99.90;;;-141.84;94.42;18826.25;5029579;28;20222;-58
2023/02/12 05:58:57;;;;;;;31.07;19.87;;;6.30;99.90;;;-141.84;94.70;18779.50;5029406;28;20308;-57
2023/02/12 06:01:29;;;;;;;27.40;18.07;;;6.30;99.90;;;-141.84;94.76;18755.13;5029558;28;20194;-58
2023/02/12 06:03:59;;;;;;;31.67;19.23;;;6.30;99.90;;;-141.84;95.11;18771.38;5030213;28;20194;-58
2023/02/12 06:06:28;;;;;;;27.13;17.20;;;6.30;99.90;;;-141.84;95.27;18757.16;5043514;28;20724;-58
2023/02/12 06:08:57;;;;;;;29.53;19.03;;;6.40;99.90;;;-141.84;95.67;18793.72;5049526;28;20311;-59
2023/02/12 06:11:28;;;;;;;27.63;18.13;;;6.30;99.90;;;-141.84;95.60;18797.78;5049437;28;20244;-56
2023/02/12 06:13:56;;;;;;;26.33;17.50;;;6.40;99.90;;;-141.84;95.90;18785.59;5049594;28;20617;-57
2023/02/12 06:16:28;;;;;;;29.03;18.80;;;6.40;99.90;;;-141.84;95.94;18797.78;5049286;28;20775;-59
2023/02/12 06:18:57;;;;;;;28.50;17.87;;;6.40;99.90;;;-141.84;95.94;18767.31;5049594;28;20209;-58
2023/02/12 06:21:27;;;;;;;29.20;17.70;;;6.40;99.90;;;-141.84;95.79;18744.97;5049046;28;20240;-58
2023/02/12 06:23:55;;;;;;;28.80;18.03;;;6.40;99.90;;;-141.84;96.08;18777.47;5049242;28;20231;-57
2023/02/12 06:26:26;;;;;;;29.23;18.73;;;6.40;99.90;;;-141.84;95.92;18773.41;5048620;28;20716;-57
2023/02/12 06:28:54;;;;;;;27.83;17.93;;;6.50;99.90;;;-141.84;95.83;18779.50;5049104;28;20228;-57
2023/02/12 06:31:26;;;;;;;30.07;18.57;;;6.40;99.90;;;-141.84;95.80;18730.75;5049330;28;20217;-59
2023/02/12 06:33:57;;;;;;;28.40;17.83;;;6.40;99.90;;;-141.84;95.81;18765.28;5049360;28;20284;-59
2023/02/12 06:36:25;;;;;;;26.13;17.57;;;6.40;99.90;;;-141.84;95.77;18789.66;5048765;28;20272;-57
2023/02/12 06:38:54;;;;;;;28.07;18.37;;;6.40;99.90;;;-141.84;95.95;18773.41;5049014;28;20225;-56
2023/02/12 06:41:23;;;;;;;30.93;17.87;;;6.40;99.90;;;-141.84;95.78;18783.56;5048876;28;20229;-59
2023/02/12 06:43:53;;;;;;;27.57;17.30;;;6.40;99.90;;;-141.84;95.74;18773.41;5049072;28;20221;-58
2023/02/12 06:46:22;;;;;;;26.83;16.90;;;6.40;99.90;;;-141.84;95.83;18765.28;5049028;28;20225;-57
2023/02/12 06:48:54;;;;;;;27.60;18.50;;;6.40;99.90;;;-141.84;95.85;18777.47;5048808;28;20229;-58
2023/02/12 06:51:22;;;;;;;26.90;17.30;;;6.50;99.90;;;-141.84;95.98;18753.09;5048779;28;20228;-58
2023/02/12 06:53:52;;;;;;;29.60;18.80;;;6.50;99.90;;;-141.84;96.00;18799.81;5048992;28;20237;-58
2023/02/12 06:56:24;;;;;;;28.37;18.03;;;6.50;99.90;;;-141.84;96.06;18807.94;5049181;28;20236;-56
2023/02/12 06:58:57;;;;;;;28.80;17.47;;;6.60;99.90;;;-141.84;96.23;18763.25;5049565;28;20228;-59
2023/02/12 07:01:28;;;;;;;28.97;17.93;;;6.50;99.90;;;-141.84;96.17;18805.91;5052923;28;20656;-58
2023/02/12 07:03:59;;;;;;;28.40;17.63;;;6.50;99.90;;;-141.84;96.03;18805.91;5052936;28;20752;-58
2023/02/12 07:06:29;;;;;;;27.40;17.83;;;6.60;99.90;;;-141.84;95.51;18765.28;5052434;28;20252;-59
2023/02/12 07:08:57;;;;;;;26.13;17.13;;;6.60;99.90;;;-141.84;95.44;18777.47;5052306;28;20225;-57
2023/02/12 07:11:28;;;;;;;28.90;18.23;;;6.60;99.90;;;-141.84;95.63;18747.00;5052632;28;20221;-58
2023/02/12 07:13:58;;;;;;;26.93;17.80;;;6.60;99.90;;;-141.84;95.83;18749.03;5052363;28;20232;-59
2023/02/12 07:16:27;;;;;;;27.87;18.27;;;6.60;99.90;;;-141.84;95.82;18740.91;5052119;28;20229;-58
2023/02/12 07:18:55;;;;;;;27.03;17.30;;;6.60;99.90;;;-141.84;95.84;18740.91;5052465;28;20212;-58
2023/02/12 07:21:23;;;;;;;30.13;19.67;;;6.60;99.90;;;-141.84;95.99;18814.03;5052063;28;20236;-58
2023/02/12 07:23:53;;;;;;;25.23;16.80;;;6.70;99.90;;;-141.84;96.29;18759.19;5052294;28;20728;-55
2023/02/12 07:26:22;;;;;;;28.93;17.83;;;6.70;99.90;;;-141.84;96.10;18769.34;5052223;28;20248;-55
2023/02/12 07:28:51;;;;;;;27.97;18.27;;;6.70;99.90;;;-141.84;96.20;18773.41;5051993;28;20236;-58
2023/02/12 07:31:23;;;;;;;25.53;17.33;;;6.70;99.90;;;-141.84;96.08;18805.91;5052677;28;20224;-57
2023/02/12 07:33:55;;;;;;;23.67;16.60;;;6.80;99.90;;;-141.84;95.75;18814.03;5052241;28;20693;-58
2023/02/12 07:36:27;;;;;;;24.33;15.67;;;6.80;99.90;;;-141.84;95.21;18805.91;5051942;28;20229;-59
2023/02/12 07:38:56;;;;;;;24.83;17.83;;;6.80;99.90;;;-141.84;95.05;18789.66;5052228;28;20233;-59
2023/02/12 07:41:27;;;;;;;25.33;16.83;;;6.70;99.90;;;-141.84;95.01;18793.72;5051866;28;20545;-58
2023/02/12 07:43:57;;;;;;;28.67;18.67;;;6.80;99.90;;;-141.84;94.92;18803.88;5052001;28;20232;-56
2023/02/12 07:46:30;;;;;;;28.60;18.00;;;6.80;99.90;;;-141.84;94.64;18777.47;5051485;28;20206;-56
2023/02/12 07:49:01;;;;;;;28.27;17.57;;;6.80;99.90;;;-141.84;94.55;18783.56;5052400;28;20268;-58
2023/02/12 07:51:31;;;;;;;32.67;21.53;;;6.80;99.90;;;-141.84;94.67;18775.44;5051653;28;20307;-58
2023/02/12 07:54:00;;;;;;;29.27;19.03;;;6.70;99.90;;;-141.84;94.63;18803.88;5051360;28;20308;-58
2023/02/12 07:56:31;;;;;;;30.47;20.83;;;6.80;99.90;;;-141.84;94.60;18787.63;5051726;28;20221;-60
2023/02/12 07:59:02;;;;;;;31.77;21.07;;;6.80;99.90;;;-141.84;94.57;18799.81;5051381;28;20228;-58
2023/02/12 08:01:34;;;;;;;29.20;20.10;;;6.80;99.90;;;-141.84;94.63;18793.72;5051660;28;20193;-59
2023/02/12 08:04:05;;;;;;;28.27;19.67;;;6.70;99.90;;;-141.84;94.57;18809.97;5051856;28;20197;-55
2023/02/12 08:06:38;;;;;;;30.83;21.70;;;6.80;99.90;;;-141.84;94.55;18779.50;5051368;28;20225;-57
2023/02/12 08:09:09;;;;;;;29.27;21.10;;;6.80;99.90;;;-141.84;94.33;18755.13;5051553;28;20225;-60
2023/02/12 08:11:39;;;;;;;31.03;21.10;;;6.80;99.90;;;-141.84;94.55;18769.34;5051370;28;20236;-58
2023/02/12 08:14:07;;;;;;;29.00;19.20;;;6.80;99.90;;;-141.84;94.40;18775.44;5051320;28;20221;-57
2023/02/12 08:16:39;;;;;;;25.10;17.03;;;6.80;99.90;;;-141.84;94.60;18761.22;5050961;28;20229;-57
2023/02/12 08:19:08;;;;;;;26.90;18.20;;;6.80;99.90;;;-141.84;94.81;18809.97;5051832;28;20186;-58
2023/02/12 08:21:50;;;;;;;25.20;18.20;;;6.90;99.90;;;-141.84;94.62;18791.69;5051190;28;20723;-57
2023/02/12 08:24:20;;;;;;;23.93;17.13;;;6.90;99.90;;;-141.84;94.96;18781.53;5051231;28;20706;-58
2023/02/12 08:26:49;;;;;;;21.77;16.27;;;6.80;99.90;;;-141.84;94.62;18797.78;5051234;28;20724;-60
2023/02/12 08:29:20;;;;;;;23.63;16.43;;;6.90;99.90;;;-141.84;94.19;18820.16;5051129;28;20221;-56
2023/02/12 08:31:56;;;;;;;22.50;15.47;;;6.90;99.90;;;-141.84;94.10;18814.03;5051207;28;20231;-59
2023/02/12 08:34:27;;;;;;;21.50;15.23;;;6.90;99.90;;;-141.84;93.96;18791.69;5051737;28;20220;-58
2023/02/12 08:36:57;;;;;;;22.17;15.73;;;6.90;99.90;;;-141.84;93.65;18789.66;5051478;28;20221;-58
2023/02/12 08:39:29;;;;;;;20.40;14.03;;;6.80;99.90;;;-141.84;93.74;18812.00;5050790;28;20236;-58
2023/02/12 08:41:59;;;;;;;22.50;15.80;;;6.90;99.90;;;-141.84;93.70;18822.19;5051287;28;20255;-57
2023/02/12 08:44:28;;;;;;;21.70;15.87;;;7.00;99.90;;;-141.84;93.58;18842.50;5050972;28;20609;-59
2023/02/12 08:46:57;;;;;;;20.33;14.53;;;7.00;99.90;;;-141.84;93.17;18799.81;5050654;28;20583;-58
2023/02/12 08:49:29;;;;;;;22.20;15.83;;;7.10;99.90;;;-141.84;93.02;18783.56;5050709;28;20212;-59
2023/02/12 08:52:01;;;;;;;21.60;15.20;;;7.10;99.90;;;-141.84;92.39;18816.06;5051014;28;20192;-56
2023/02/12 08:54:31;;;;;;;27.33;16.73;;;7.20;99.90;;;-141.84;91.76;18846.56;5050508;28;20229;-59
2023/02/12 08:57:03;;;;;;;21.87;16.00;;;7.20;99.90;;;-141.84;90.70;18862.81;5050396;28;20729;-58
2023/02/12 08:59:31;;;;;;;23.37;17.07;;;7.40;99.90;;;-141.84;90.80;18842.50;5050162;28;20229;-59
2023/02/12 09:02:02;;;;;;;23.83;16.17;;;7.40;99.90;;;-141.84;91.34;18836.41;5050773;28;20225;-59
2023/02/12 09:04:31;;;;;;;21.43;15.37;;;7.50;99.90;;;-141.84;90.73;18866.88;5050481;28;20182;-57
2023/02/12 09:06:59;;;;;;;22.63;15.77;;;7.60;99.90;;;-141.84;89.74;18891.25;5050902;28;20248;-56
2023/02/12 09:09:27;;;;;;;20.03;15.60;;;7.60;99.90;;;-141.84;89.32;18887.19;5050224;28;20249;-58
2023/02/12 09:11:55;;;;;;;19.50;14.23;;;7.70;99.90;;;-141.84;89.08;18879.06;5050371;28;20603;-59
2023/02/12 09:14:24;;;;;;;21.90;15.43;;;7.70;99.90;;;-141.84;89.43;18897.34;5050258;28;20228;-57
2023/02/12 09:16:53;;;;;;;20.90;14.40;;;7.80;99.90;;;-141.84;89.75;18909.53;5049795;28;20239;-58
2023/02/12 09:19:23;;;;;;;20.23;14.80;;;7.80;99.90;;;-141.84;89.80;18927.84;5047366;28;20509;-58
2023/02/12 09:21:52;;;;;;;19.50;14.67;;;7.90;99.90;;;-141.84;89.50;18893.28;5038333;28;20233;-57
2023/02/12 09:24:23;;;;;;;22.00;15.07;;;8.00;99.90;;;-141.84;89.14;18893.28;5029733;28;20225;-57
2023/02/12 09:26:51;;;;;;;17.97;13.27;;;8.10;99.90;;;-141.84;89.51;18883.13;5029467;28;20714;-58
2023/02/12 09:29:20;;;;;;;19.60;14.37;;;8.10;99.90;;;-141.84;89.25;18915.63;5035067;28;20220;-59
2023/02/12 09:31:48;;;;;;;16.60;13.57;;;8.20;99.90;;;-141.84;89.42;18940.03;5048848;28;20225;-59
2023/02/12 09:34:16;;;;;;;15.67;12.63;;;8.20;99.90;;;-141.84;88.75;18911.56;5034923;28;20210;-57
2023/02/12 09:36:46;;;;;;;17.33;12.50;;;8.20;99.90;;;-141.84;88.85;18889.22;5045974;28;20360;-59
2023/02/12 09:39:14;;;;;;;16.27;12.87;;;8.20;99.90;;;-141.84;88.84;18911.56;5049623;28;20595;-60
2023/02/12 09:42:32;;;;;;;17.60;13.77;;;8.20;99.90;;;-141.84;88.75;18897.34;5050145;28;20240;-57
2023/02/12 09:45:10;;;;;;;17.67;13.33;;;8.20;99.90;;;-141.84;88.53;18909.53;5023438;28;20229;-59
2023/02/12 09:47:48;;;;;;;15.50;12.60;;;8.30;99.90;;;-141.84;88.60;18942.06;5049717;28;20231;-59
2023/02/12 09:50:37;;;;;;;18.00;14.17;;;8.30;99.90;;;-141.84;88.35;18938.00;5049374;28;20233;-58
2023/02/12 09:53:14;;;;;;;17.90;13.27;;;8.30;99.90;;;-141.84;88.19;18929.88;5050122;28;20248;-60
2023/02/12 09:55:42;;;;;;;17.17;12.67;;;8.30;99.90;;;-141.84;86.99;18944.09;5049707;28;20192;-58
2023/02/12 09:58:17;;;;;;;15.57;12.73;;;8.30;99.90;;;-141.84;87.03;18940.03;5050244;28;20200;-59
2023/02/12 10:00:45;;;;;;;16.10;12.70;;;8.20;99.90;;;-141.84;87.40;18931.91;5049417;28;20259;-59
2023/02/12 10:03:17;;;;;;;15.67;12.50;;;8.20;99.90;;;-141.84;87.72;18907.50;5048813;28;20229;-57
2023/02/12 10:05:52;;;;;;;17.10;13.50;;;8.10;99.90;;;-141.84;88.05;18905.47;5048416;28;20236;-57
2023/02/12 10:08:50;;;;;;;17.00;13.17;;;8.10;99.90;;;-141.84;88.30;18956.28;5049227;28;20714;-57
2023/02/12 10:11:56;;;;;;;18.80;13.83;;;8.10;99.90;;;-141.84;88.25;18895.31;5049122;28;20720;-58
2023/02/12 10:15:09;;;;;;;20.47;13.73;;;8.10;99.90;;;-141.84;87.90;18923.78;5049321;28;20231;-59
2023/02/12 10:17:44;;;;;;;16.93;13.30;;;8.10;99.90;;;-141.84;87.18;18927.84;5048762;28;20334;-58
2023/02/12 10:21:02;;;;;;;17.17;11.93;;;8.20;99.90;;;-141.84;86.86;18919.69;5049056;28;20228;-59
2023/02/12 10:23:57;;;;;;;18.07;13.07;;;8.30;99.90;;;-141.84;86.32;18956.28;5049178;28;20221;-59
2023/02/12 10:26:31;;;;;;;14.43;11.37;;;8.40;99.90;;;-141.84;86.30;18935.97;5049138;28;20220;-59
2023/02/12 10:29:12;;;;;;;16.23;12.47;;;8.40;99.90;;;-141.84;85.01;18970.50;5049228;28;20602;-59